createdAt,value
2022-09-30T00:03:49.700Z,9.60
2022-09-30T00:11:17.661Z,9.40
2022-09-30T00:13:46.956Z,9.40
2022-09-30T00:16:15.748Z,9.40
2022-09-30T00:18:43.901Z,9.40
2022-09-30T00:21:12.348Z,9.50
2022-09-30T00:23:40.270Z,9.50
2022-09-30T00:26:11.313Z,9.50
2022-09-30T00:28:39.312Z,9.40
2022-09-30T00:31:09.875Z,9.40
2022-09-30T00:36:04.932Z,9.40
2022-09-30T00:38:32.410Z,9.40
2022-09-30T00:43:59.170Z,9.30
2022-09-30T00:46:44.897Z,9.40
2022-09-30T00:49:21.610Z,9.40
2022-09-30T00:51:55.047Z,9.40
2022-09-30T00:54:26.275Z,9.30
2022-09-30T00:56:58.188Z,9.30
2022-09-30T00:59:34.955Z,9.40
2022-09-30T01:04:32.634Z,9.30
2022-09-30T01:07:05.642Z,9.30
2022-09-30T01:09:35.008Z,9.20
2022-09-30T01:12:09.452Z,9.20
2022-09-30T01:14:37.648Z,9.20
2022-09-30T01:17:26.104Z,9.20
2022-09-30T01:20:21.771Z,9.20
2022-09-30T01:23:35.741Z,9.10
2022-09-30T01:26:34.679Z,9.00
2022-09-30T01:29:40.456Z,9.20
2022-09-30T01:32:17.383Z,9.20
2022-09-30T01:35:14.028Z,9.20
2022-09-30T01:38:20.247Z,9.30
2022-09-30T01:41:00.203Z,9.40
2022-09-30T01:43:51.173Z,9.20
2022-09-30T01:46:26.872Z,9.70
2022-09-30T01:49:09.362Z,9.20
2022-09-30T01:54:29.464Z,9.20
2022-09-30T01:57:06.011Z,9.20
2022-09-30T01:59:41.727Z,9.10
2022-09-30T02:02:31.485Z,9.10
2022-09-30T02:05:03.307Z,9.20
2022-09-30T02:07:39.217Z,9.10
2022-09-30T02:10:17.793Z,9.10
2022-09-30T02:12:56.161Z,9.20
2022-09-30T02:15:26.919Z,9.10
2022-09-30T02:18:04.539Z,9.00
2022-09-30T02:20:36.862Z,9.10
2022-09-30T02:23:27.907Z,9.00
2022-09-30T02:26:18.161Z,9.00
2022-09-30T02:28:53.425Z,9.10
2022-09-30T02:31:24.009Z,9.00
2022-09-30T02:33:56.497Z,9.00
2022-09-30T02:36:37.314Z,9.10
2022-09-30T02:39:17.360Z,9.00
2022-09-30T02:41:49.871Z,9.10
2022-09-30T02:46:57.098Z,9.00
2022-09-30T02:52:26.628Z,9.00
2022-09-30T02:57:32.354Z,9.00
2022-09-30T03:09:57.532Z,9.00
2022-09-30T03:12:52.116Z,9.00
2022-09-30T03:15:39.860Z,9.00
2022-09-30T03:18:31.588Z,8.90
2022-09-30T03:21:01.324Z,8.90
2022-09-30T03:23:49.007Z,8.90
2022-09-30T03:31:33.330Z,8.80
2022-09-30T03:34:27.645Z,8.80
2022-09-30T03:37:16.880Z,8.80
2022-09-30T03:40:13.392Z,8.70
2022-09-30T03:42:46.643Z,8.70
2022-09-30T03:45:20.215Z,8.60
2022-09-30T03:47:54.831Z,8.70
2022-09-30T03:50:24.596Z,8.70
2022-09-30T03:55:20.107Z,8.60
2022-09-30T04:05:09.234Z,8.50
2022-09-30T05:14:08.917Z,7.80
2022-09-30T05:46:19.965Z,7.90
2022-09-30T05:56:10.499Z,7.70
2022-09-30T06:01:13.712Z,7.80
2022-09-30T06:11:11.886Z,7.80
2022-09-30T06:13:39.744Z,7.80
2022-09-30T06:16:08.153Z,7.80
2022-09-30T06:18:35.635Z,7.90
2022-09-30T06:21:05.065Z,7.90
2022-09-30T06:23:35.102Z,7.90
2022-09-30T06:26:03.380Z,7.80
2022-09-30T06:43:20.967Z,7.80
2022-09-30T06:45:49.896Z,7.90
2022-09-30T06:51:01.964Z,8.00
2022-09-30T06:55:57.288Z,8.00
2022-09-30T07:01:04.298Z,8.10
2022-09-30T07:03:34.014Z,8.10
2022-09-30T07:06:03.568Z,8.00
2022-09-30T07:08:32.578Z,8.20
2022-09-30T07:11:04.529Z,8.30
2022-09-30T07:20:56.571Z,8.30
2022-09-30T07:23:27.061Z,8.30
2022-09-30T07:26:00.305Z,8.40
2022-09-30T07:28:31.955Z,8.40
2022-09-30T07:31:27.396Z,8.50
2022-09-30T07:33:51.264Z,8.40
2022-09-30T07:36:22.788Z,8.60
2022-09-30T07:41:27.330Z,8.70
2022-09-30T07:43:56.646Z,8.70
2022-09-30T07:46:30.585Z,8.80
2022-09-30T07:49:02.032Z,8.70
2022-09-30T07:51:36.268Z,8.80
2022-09-30T07:54:13.211Z,8.70
2022-09-30T07:59:30.152Z,8.70
2022-09-30T08:04:26.155Z,9.00
2022-09-30T08:06:59.914Z,9.00
2022-09-30T08:09:28.933Z,9.00
2022-09-30T08:14:26.056Z,9.10
2022-09-30T08:19:25.133Z,9.10
2022-09-30T08:24:23.651Z,9.10
2022-09-30T08:42:36.876Z,9.30
2022-09-30T08:45:47.018Z,9.40
2022-09-30T08:48:52.258Z,9.50
2022-09-30T08:51:39.108Z,9.40
2022-09-30T08:54:11.531Z,9.70
2022-09-30T08:59:14.309Z,9.80
2022-09-30T09:01:48.526Z,9.90
2022-09-30T09:09:44.160Z,10.20
2022-09-30T09:12:23.822Z,10.40
2022-09-30T09:15:31.037Z,10.50
2022-09-30T09:18:23.641Z,10.60
2022-09-30T09:21:00.026Z,10.70
2022-09-30T09:23:31.266Z,10.70
2022-09-30T09:30:58.719Z,10.80
2022-09-30T09:33:35.312Z,10.90
2022-09-30T09:39:16.049Z,11.20
2022-09-30T09:41:55.723Z,11.20
2022-09-30T09:44:30.848Z,11.30
2022-09-30T09:47:05.106Z,11.30
2022-09-30T09:49:40.088Z,11.40
2022-09-30T09:54:41.362Z,11.50
2022-09-30T09:57:09.978Z,11.60
2022-09-30T09:59:54.961Z,11.60
2022-09-30T10:02:24.528Z,11.60
2022-09-30T10:04:59.975Z,11.60
2022-09-30T10:07:29.296Z,11.70
2022-09-30T10:10:23.564Z,11.80
2022-09-30T10:15:22.475Z,12.00
2022-09-30T10:17:55.456Z,12.10
2022-09-30T10:20:36.009Z,12.30
2022-09-30T10:23:18.533Z,12.40
2022-09-30T10:26:06.461Z,12.50
2022-09-30T10:28:44.322Z,12.50
2022-09-30T10:31:38.731Z,12.50
2022-09-30T10:34:21.167Z,12.60
2022-09-30T10:36:48.879Z,12.60
2022-09-30T10:39:34.627Z,12.70
2022-09-30T10:42:16.266Z,12.70
2022-09-30T10:44:49.781Z,12.70
2022-09-30T10:47:22.465Z,12.80
2022-09-30T10:50:00.263Z,12.90
2022-09-30T10:52:31.041Z,13.00
2022-09-30T10:55:19.983Z,13.10
2022-09-30T10:57:48.388Z,13.20
2022-09-30T11:00:19.588Z,13.20
2022-09-30T11:03:02.011Z,13.20
2022-09-30T11:08:30.626Z,13.50
2022-09-30T11:11:10.516Z,13.70
2022-09-30T11:13:45.466Z,13.80
2022-09-30T11:19:09.471Z,14.20
2022-09-30T11:21:57.054Z,14.30
2022-09-30T11:24:38.319Z,14.40
2022-09-30T11:27:19.887Z,14.30
2022-09-30T11:30:08.796Z,14.40
2022-09-30T11:32:59.156Z,14.30
2022-09-30T11:35:49.687Z,14.30
2022-09-30T11:38:25.625Z,14.40
2022-09-30T11:43:46.568Z,14.60
2022-09-30T11:46:31.123Z,14.60
2022-09-30T11:49:05.737Z,14.60
2022-09-30T11:51:36.112Z,14.70
2022-09-30T11:54:08.937Z,14.60
2022-09-30T11:59:07.942Z,14.50
2022-09-30T12:01:43.891Z,14.50
2022-09-30T12:06:48.045Z,14.50
2022-09-30T12:09:24.182Z,14.60
2022-09-30T12:12:00.676Z,14.60
2022-09-30T12:14:30.714Z,14.70
2022-09-30T12:17:01.980Z,14.70
2022-09-30T12:19:36.405Z,14.70
2022-09-30T12:22:20.933Z,14.80
2022-09-30T12:27:39.015Z,15.00
2022-09-30T12:30:17.844Z,15.00
2022-09-30T12:32:54.008Z,14.80
2022-09-30T12:38:13.466Z,15.10
2022-09-30T12:40:56.139Z,15.10
2022-09-30T12:43:34.587Z,15.10
2022-09-30T12:46:14.967Z,15.10
2022-09-30T12:48:56.260Z,15.10
2022-09-30T12:51:41.418Z,15.00
2022-09-30T12:54:24.448Z,15.00
2022-09-30T12:57:00.499Z,15.30
2022-09-30T12:59:39.619Z,15.20
2022-09-30T13:02:08.038Z,15.20
2022-09-30T13:04:39.111Z,15.30
2022-09-30T13:07:17.068Z,15.40
2022-09-30T13:10:22.158Z,15.50
2022-09-30T13:15:28.433Z,15.70
2022-09-30T13:20:56.394Z,15.40
2022-09-30T13:23:49.990Z,15.80
2022-09-30T13:26:38.691Z,15.60
2022-09-30T13:29:14.695Z,15.70
2022-09-30T13:31:50.446Z,15.90
2022-09-30T13:34:32.734Z,15.80
2022-09-30T13:37:04.766Z,15.80
2022-09-30T13:39:34.306Z,15.80
2022-09-30T13:45:08.029Z,15.90
2022-09-30T13:47:43.929Z,15.90
2022-09-30T13:50:31.529Z,16.00
2022-09-30T13:53:06.814Z,15.90
2022-09-30T13:55:53.968Z,15.90
2022-09-30T14:01:05.547Z,16.00
2022-09-30T14:06:16.214Z,16.00
2022-09-30T14:09:10.768Z,16.10
2022-09-30T14:12:12.396Z,16.00
2022-09-30T14:15:16.659Z,15.90
2022-09-30T14:17:55.888Z,16.00
2022-09-30T14:21:01.855Z,15.90
2022-09-30T14:23:29.491Z,16.20
2022-09-30T14:26:28.766Z,16.30
2022-09-30T14:29:32.038Z,16.10
2022-09-30T14:32:00.002Z,15.80
2022-09-30T14:34:29.557Z,15.70
2022-09-30T14:39:29.316Z,15.20
2022-09-30T14:42:02.002Z,15.30
2022-09-30T14:44:33.933Z,15.10
2022-09-30T14:49:34.330Z,15.10
2022-09-30T14:54:32.548Z,15.00
2022-09-30T14:57:02.314Z,15.00
2022-09-30T14:59:34.577Z,15.10
2022-09-30T15:02:12.227Z,15.10
2022-09-30T15:04:41.699Z,15.20
2022-09-30T15:07:12.784Z,15.10
2022-09-30T15:09:43.897Z,15.10
2022-09-30T15:12:19.362Z,15.10
2022-09-30T15:14:59.853Z,15.00
2022-09-30T15:17:30.016Z,14.90
2022-09-30T15:19:58.784Z,14.80
2022-09-30T15:22:28.446Z,14.70
2022-09-30T15:24:58.125Z,14.80
2022-09-30T15:27:29.978Z,14.70
2022-09-30T15:30:02.522Z,14.70
2022-09-30T15:32:33.105Z,14.70
2022-09-30T15:35:35.430Z,15.00
2022-09-30T15:38:23.248Z,14.70
2022-09-30T15:41:00.598Z,14.60
2022-09-30T15:43:35.727Z,14.60
2022-09-30T15:46:22.860Z,14.60
2022-09-30T15:48:49.947Z,14.40
2022-09-30T15:51:30.743Z,14.60
2022-09-30T15:54:16.151Z,14.50
2022-09-30T15:59:14.804Z,14.50
2022-09-30T16:01:43.588Z,14.50
2022-09-30T16:04:15.368Z,14.50
2022-09-30T16:09:27.249Z,14.60
2022-09-30T16:12:12.170Z,14.40
2022-09-30T16:14:50.154Z,14.40
2022-09-30T16:17:20.989Z,14.40
2022-09-30T16:19:53.744Z,14.30
2022-09-30T16:22:56.712Z,14.30
2022-09-30T16:28:00.753Z,14.20
2022-09-30T16:30:28.920Z,14.20
2022-09-30T16:32:58.532Z,14.10
2022-09-30T16:35:27.810Z,14.10
2022-09-30T16:38:00.548Z,14.20
2022-09-30T16:40:29.326Z,14.10
2022-09-30T16:45:27.768Z,14.00
2022-09-30T16:47:56.921Z,13.90
2022-09-30T16:50:40.164Z,13.60
2022-09-30T17:05:27.941Z,13.50
2022-09-30T17:07:57.484Z,13.50
2022-09-30T17:10:33.268Z,13.40
2022-09-30T17:15:29.422Z,13.30
2022-09-30T17:20:24.285Z,13.00
2022-09-30T17:25:18.947Z,13.20
2022-09-30T17:27:50.069Z,13.20
2022-09-30T18:05:15.773Z,13.30
2022-09-30T18:10:09.976Z,12.90
2022-09-30T18:37:29.232Z,12.80
2022-09-30T19:56:36.331Z,12.40
2022-09-30T20:04:04.781Z,12.20
2022-09-30T20:06:32.880Z,12.30
2022-09-30T20:09:02.314Z,12.50
2022-09-30T20:11:35.417Z,12.30
2022-09-30T20:14:24.044Z,12.20
2022-09-30T20:19:19.274Z,12.40
2022-09-30T20:21:50.081Z,12.40
2022-09-30T20:24:18.524Z,12.40
2022-09-30T20:26:46.166Z,12.30
2022-09-30T20:31:42.826Z,12.30
2022-09-30T20:34:13.489Z,12.30
2022-09-30T20:39:08.711Z,12.30
2022-09-30T20:41:37.744Z,12.30
2022-09-30T20:44:11.895Z,12.30
2022-09-30T20:56:49.546Z,12.30
2022-09-30T21:23:58.696Z,12.20
2022-09-30T21:31:27.397Z,12.30
2022-09-30T21:33:59.465Z,12.30
2022-09-30T21:36:27.782Z,12.30
2022-09-30T21:56:11.437Z,12.40
2022-09-30T22:01:07.096Z,12.20
2022-09-30T22:03:37.970Z,12.20
2022-09-30T22:06:10.362Z,12.20
2022-09-30T22:08:41.775Z,12.20
2022-09-30T22:11:15.495Z,12.10
2022-09-30T22:13:44.130Z,12.00
2022-09-30T22:16:15.489Z,12.10
2022-09-30T22:21:13.430Z,12.00
2022-09-30T22:23:40.855Z,12.00
2022-09-30T22:28:37.025Z,11.80
2022-09-30T22:31:21.482Z,11.70
2022-09-30T22:34:09.363Z,11.80
2022-09-30T22:39:23.583Z,11.80
2022-09-30T22:41:54.886Z,11.70
2022-09-30T22:44:25.562Z,11.70
2022-09-30T22:46:59.880Z,11.70
2022-09-30T22:51:56.042Z,11.70
2022-09-30T22:54:24.364Z,11.70
2022-09-30T22:59:19.662Z,11.90
2022-09-30T23:06:48.523Z,11.90
2022-09-30T23:26:30.037Z,11.70
2022-09-30T23:29:02.306Z,11.60
2022-09-30T23:33:58.951Z,11.60
2022-09-30T23:36:31.764Z,11.50
2022-09-30T23:39:02.136Z,11.50
2022-09-30T23:41:30.123Z,11.60
2022-09-30T23:56:16.404Z,11.40
2022-09-30T23:58:43.942Z,11.10
